createdAt,value
2023-03-12T00:01:17.266Z,99796.98
2023-03-12T00:03:43.874Z,99794.14
2023-03-12T00:06:11.318Z,99792.13
2023-03-12T00:08:38.415Z,99798.98
2023-03-12T00:11:10.047Z,99800.52
2023-03-12T00:13:37.569Z,99803.36
2023-03-12T00:16:13.496Z,99809.27
2023-03-12T00:18:41.667Z,99810.80
2023-03-12T00:21:08.833Z,99811.24
2023-03-12T00:23:36.353Z,99817.85
2023-03-12T00:26:06.735Z,99824.20
2023-03-12T00:28:35.218Z,99829.16
2023-03-12T00:31:13.891Z,99833.91
2023-03-12T00:33:40.598Z,99842.60
2023-03-12T00:36:08.202Z,99844.71
2023-03-12T00:38:34.922Z,99844.94
2023-03-12T00:41:01.800Z,99844.58
2023-03-12T00:43:28.411Z,99844.95
2023-03-12T00:45:54.979Z,99853.36
2023-03-12T00:48:21.682Z,99856.17
2023-03-12T00:50:48.415Z,99855.20
2023-03-12T00:53:16.293Z,99859.23
2023-03-12T00:55:42.901Z,99858.55
2023-03-12T00:58:09.620Z,99859.23
2023-03-12T01:00:36.515Z,99866.44
2023-03-12T01:03:03.265Z,99865.20
2023-03-12T01:05:30.039Z,99859.82
2023-03-12T01:07:56.853Z,99863.08
2023-03-12T01:10:23.682Z,99862.01
2023-03-12T01:12:50.343Z,99858.88
2023-03-12T01:15:18.043Z,99862.36
2023-03-12T01:17:44.877Z,99870.66
2023-03-12T01:20:11.963Z,99872.44
2023-03-12T01:22:38.859Z,99877.50
2023-03-12T01:25:06.421Z,99882.33
2023-03-12T01:27:33.067Z,99882.42
2023-03-12T01:29:59.827Z,99885.87
2023-03-12T01:32:26.563Z,99892.73
2023-03-12T01:34:53.475Z,99895.25
2023-03-12T01:37:20.188Z,99894.80
2023-03-12T01:39:46.830Z,99899.02
2023-03-12T01:42:13.485Z,99896.84
2023-03-12T01:44:58.962Z,99904.11
2023-03-12T01:47:27.828Z,99907.77
2023-03-12T01:49:56.189Z,99915.41
2023-03-12T01:52:33.849Z,99926.63
2023-03-12T01:55:13.493Z,99928.66
2023-03-12T01:57:58.661Z,99936.77
2023-03-12T02:00:27.247Z,99937.33
2023-03-12T02:03:00.108Z,99936.18
2023-03-12T02:05:43.848Z,99946.02
2023-03-12T02:08:12.350Z,99946.59
2023-03-12T02:10:39.423Z,99942.04
2023-03-12T02:13:06.744Z,99939.53
2023-03-12T02:15:35.873Z,99937.97
2023-03-12T02:18:04.182Z,99941.52
2023-03-12T02:20:45.611Z,99939.09
2023-03-12T02:23:18.623Z,99946.08
2023-03-12T02:25:51.172Z,99950.14
2023-03-12T02:28:23.119Z,99953.00
2023-03-12T02:30:52.643Z,99955.80
2023-03-12T02:33:19.661Z,99960.83
2023-03-12T02:35:48.173Z,99966.83
2023-03-12T02:38:37.344Z,99968.40
2023-03-12T02:41:33.398Z,99975.66
2023-03-12T02:44:05.729Z,99981.60
2023-03-12T02:46:38.142Z,99989.29
2023-03-12T02:49:26.910Z,99996.04
2023-03-12T02:51:54.488Z,99999.09
2023-03-12T02:54:22.982Z,100003.73
2023-03-12T02:56:51.082Z,100005.45
2023-03-12T02:59:20.839Z,100009.70
2023-03-12T03:01:56.035Z,100014.55
2023-03-12T03:04:23.734Z,100015.13
2023-03-12T03:06:51.364Z,100018.13
2023-03-12T03:09:19.425Z,100019.90
2023-03-12T03:11:46.100Z,100022.52
2023-03-12T03:14:13.939Z,100027.56
2023-03-12T03:16:40.885Z,100032.37
2023-03-12T03:19:08.033Z,100041.94
2023-03-12T03:21:34.965Z,100050.39
2023-03-12T03:24:01.700Z,100054.77
2023-03-12T03:26:28.482Z,100058.55
2023-03-12T03:28:55.216Z,100064.05
2023-03-12T03:31:22.340Z,100063.95
2023-03-12T03:33:49.450Z,100066.75
2023-03-12T03:36:17.210Z,100063.64
2023-03-12T03:38:50.733Z,100065.31
2023-03-12T03:41:19.861Z,100068.93
2023-03-12T03:43:47.780Z,100068.97
2023-03-12T03:46:15.948Z,100071.73
2023-03-12T03:48:45.451Z,100076.58
2023-03-12T03:51:12.433Z,100078.91
2023-03-12T03:53:42.274Z,100086.21
2023-03-12T03:56:12.311Z,100095.13
2023-03-12T03:58:41.730Z,100099.29
2023-03-12T04:01:09.224Z,100100.77
2023-03-12T04:03:36.570Z,100106.99
2023-03-12T04:06:06.243Z,100110.28
2023-03-12T04:08:35.727Z,100119.44
2023-03-12T04:11:29.480Z,100120.25
2023-03-12T04:13:57.425Z,100125.33
2023-03-12T04:16:25.618Z,100129.54
2023-03-12T04:18:53.581Z,100135.75
2023-03-12T04:21:21.082Z,100138.33
2023-03-12T04:23:49.012Z,100141.65
2023-03-12T04:26:17.490Z,100142.31
2023-03-12T04:28:44.588Z,100149.38
2023-03-12T04:31:11.668Z,100151.80
2023-03-12T04:33:45.691Z,100154.10
2023-03-12T04:36:14.609Z,100154.77
2023-03-12T04:38:43.055Z,100157.30
2023-03-12T04:41:14.869Z,100163.30
2023-03-12T04:43:51.205Z,100165.73
2023-03-12T04:46:19.418Z,100167.97
2023-03-12T04:48:46.591Z,100174.20
2023-03-12T04:51:14.031Z,100178.66
2023-03-12T04:53:40.909Z,100184.72
2023-03-12T04:56:09.346Z,100189.23
2023-03-12T04:58:36.979Z,100189.93
2023-03-12T05:01:05.778Z,100192.79
2023-03-12T05:03:33.152Z,100193.69
2023-03-12T05:06:00.210Z,100199.64
2023-03-12T05:08:26.902Z,100206.95
2023-03-12T05:10:53.635Z,100208.19
2023-03-12T05:13:22.987Z,100220.05
2023-03-12T05:15:52.422Z,100226.40
2023-03-12T05:18:21.544Z,100228.39
2023-03-12T05:21:02.209Z,100234.71
2023-03-12T05:23:30.014Z,100238.35
2023-03-12T05:25:57.793Z,100243.67
2023-03-12T05:28:28.467Z,100244.37
2023-03-12T05:30:59.114Z,100246.02
2023-03-12T05:33:27.806Z,100252.77
2023-03-12T05:35:55.005Z,100254.02
2023-03-12T05:38:22.093Z,100258.58
2023-03-12T05:40:57.469Z,100257.24
2023-03-12T05:43:25.483Z,100256.67
2023-03-12T05:45:53.325Z,100267.70
2023-03-12T05:48:20.426Z,100269.77
2023-03-12T05:50:48.928Z,100274.79
2023-03-12T05:53:15.543Z,100281.16
2023-03-12T05:55:43.925Z,100281.43
2023-03-12T05:58:10.775Z,100282.79
2023-03-12T06:00:38.957Z,100288.47
2023-03-12T06:03:08.160Z,100290.33
2023-03-12T06:05:36.914Z,100294.95
2023-03-12T06:08:05.269Z,100297.00
2023-03-12T06:10:32.895Z,100292.52
2023-03-12T06:12:59.546Z,100301.17
2023-03-12T06:15:26.285Z,100308.79
2023-03-12T06:17:52.992Z,100314.31
2023-03-12T06:20:19.713Z,100318.30
2023-03-12T06:22:46.457Z,100320.44
2023-03-12T06:25:13.101Z,100325.90
2023-03-12T06:27:41.295Z,100329.86
2023-03-12T06:30:09.006Z,100325.44
2023-03-12T06:32:35.784Z,100331.96
2023-03-12T06:35:04.463Z,100336.65
2023-03-12T06:37:31.622Z,100332.60
2023-03-12T06:39:58.248Z,100334.34
2023-03-12T06:42:26.681Z,100335.80
2023-03-12T06:44:53.919Z,100341.41
2023-03-12T06:47:21.279Z,100345.80
2023-03-12T06:49:47.931Z,100347.30
2023-03-12T06:52:14.561Z,100352.97
2023-03-12T06:54:41.232Z,100358.71
2023-03-12T06:57:07.965Z,100361.98
2023-03-12T06:59:34.582Z,100362.67
2023-03-12T07:02:01.976Z,100370.83
2023-03-12T07:04:28.680Z,100371.07
2023-03-12T07:06:55.317Z,100371.58
2023-03-12T07:09:22.007Z,100375.33
2023-03-12T07:11:48.702Z,100378.96
2023-03-12T07:14:15.316Z,100382.86
2023-03-12T07:16:41.894Z,100385.77
2023-03-12T07:19:08.625Z,100384.35
2023-03-12T07:21:35.216Z,100382.48
2023-03-12T07:24:06.819Z,100381.16
2023-03-12T07:26:35.552Z,100386.14
2023-03-12T07:29:03.948Z,100384.92
2023-03-12T07:31:30.768Z,100391.47
2023-03-12T07:33:57.606Z,100392.95
2023-03-12T07:36:24.729Z,100397.36
2023-03-12T07:38:51.538Z,100404.46
2023-03-12T07:41:18.240Z,100408.72
2023-03-12T07:43:44.978Z,100411.27
2023-03-12T07:46:11.938Z,100416.15
2023-03-12T07:48:39.536Z,100418.33
2023-03-12T07:51:07.535Z,100420.91
2023-03-12T07:53:34.247Z,100421.56
2023-03-12T07:56:01.000Z,100423.95
2023-03-12T07:58:27.842Z,100423.05
2023-03-12T08:00:57.614Z,100425.27
2023-03-12T08:03:24.517Z,100426.12
2023-03-12T08:06:03.339Z,100431.64
2023-03-12T08:08:31.498Z,100432.66
2023-03-12T08:11:00.238Z,100430.21
2023-03-12T08:13:27.463Z,100429.58
2023-03-12T08:15:55.184Z,100431.71
2023-03-12T08:18:22.454Z,100432.77
2023-03-12T08:20:54.139Z,100430.30
2023-03-12T08:23:22.083Z,100434.68
2023-03-12T08:25:49.825Z,100444.21
2023-03-12T08:28:17.030Z,100446.33
2023-03-12T08:30:48.354Z,100446.04
2023-03-12T08:33:15.319Z,100445.98
2023-03-12T08:35:42.279Z,100452.80
2023-03-12T08:38:08.959Z,100453.40
2023-03-12T08:40:35.997Z,100461.33
2023-03-12T08:43:03.211Z,100459.14
2023-03-12T08:45:30.498Z,100461.52
2023-03-12T08:47:57.149Z,100461.88
2023-03-12T08:50:26.063Z,100461.56
2023-03-12T08:52:52.732Z,100465.34
2023-03-12T08:55:19.300Z,100470.35
2023-03-12T08:57:46.004Z,100470.05
2023-03-12T09:00:15.185Z,100467.30
2023-03-12T09:02:45.860Z,100467.57
2023-03-12T09:05:13.470Z,100476.31
2023-03-12T09:07:40.654Z,100479.59
2023-03-12T09:10:07.927Z,100478.94
2023-03-12T09:12:34.673Z,100485.98
2023-03-12T09:15:04.144Z,100484.89
2023-03-12T09:17:31.773Z,100482.96
2023-03-12T09:19:58.436Z,100485.17
2023-03-12T09:22:25.166Z,100492.35
2023-03-12T09:24:51.991Z,100489.40
2023-03-12T09:27:19.048Z,100488.14
2023-03-12T09:29:57.262Z,100483.52
2023-03-12T09:32:27.503Z,100497.53
2023-03-12T09:34:54.513Z,100499.81
2023-03-12T09:37:23.946Z,100505.51
2023-03-12T09:39:52.043Z,100506.73
2023-03-12T09:42:30.858Z,100513.85
2023-03-12T09:45:02.540Z,100511.36
2023-03-12T09:47:32.651Z,100519.33
2023-03-12T09:50:22.578Z,100519.77
2023-03-12T09:52:58.077Z,100525.70
2023-03-12T09:55:25.653Z,100523.79
2023-03-12T09:57:53.260Z,100514.77
2023-03-12T10:00:27.174Z,100518.00
2023-03-12T10:03:12.784Z,100524.88
2023-03-12T10:06:05.182Z,100518.96
2023-03-12T10:08:41.428Z,100527.05
2023-03-12T10:11:16.832Z,100526.48
2023-03-12T10:13:49.473Z,100534.23
2023-03-12T10:16:43.014Z,100532.48
2023-03-12T10:19:12.578Z,100531.95
2023-03-12T10:21:58.501Z,100529.95
2023-03-12T10:24:36.979Z,100532.67
2023-03-12T10:27:12.317Z,100531.42
2023-03-12T10:29:44.805Z,100527.85
2023-03-12T10:32:11.594Z,100528.22
2023-03-12T10:34:44.420Z,100533.67
2023-03-12T10:37:32.057Z,100541.39
2023-03-12T10:40:01.060Z,100540.95
2023-03-12T10:42:30.089Z,100542.68
2023-03-12T10:45:32.286Z,100547.80
2023-03-12T10:48:08.866Z,100544.27
2023-03-12T10:50:41.042Z,100547.59
2023-03-12T10:53:20.591Z,100547.34
2023-03-12T10:56:11.182Z,100550.20
2023-03-12T10:58:39.281Z,100547.86
2023-03-12T11:01:16.955Z,100548.52
2023-03-12T11:03:44.246Z,100552.89
2023-03-12T11:06:27.953Z,100542.80
2023-03-12T11:09:16.665Z,100542.39
2023-03-12T11:11:49.725Z,100556.98
2023-03-12T11:14:18.137Z,100555.32
2023-03-12T11:16:44.836Z,100550.20
2023-03-12T11:19:15.162Z,100554.04
2023-03-12T11:21:58.620Z,100558.77
2023-03-12T11:24:25.630Z,100562.61
2023-03-12T11:27:17.300Z,100557.29
2023-03-12T11:29:48.805Z,100561.45
2023-03-12T11:32:23.683Z,100561.62
2023-03-12T11:34:51.354Z,100560.77
2023-03-12T11:37:40.544Z,100561.70
2023-03-12T11:40:20.426Z,100560.59
2023-03-12T11:42:56.323Z,100556.38
2023-03-12T11:45:49.874Z,100549.58
2023-03-12T11:48:33.586Z,100549.02
2023-03-12T11:51:18.826Z,100548.38
2023-03-12T11:54:07.042Z,100551.56
2023-03-12T11:56:39.763Z,100554.33
2023-03-12T11:59:25.235Z,100554.02
2023-03-12T12:02:24.593Z,100557.05
2023-03-12T12:05:21.111Z,100551.52
2023-03-12T12:08:00.080Z,100557.08
2023-03-12T12:10:36.165Z,100559.47
2023-03-12T12:13:38.337Z,100557.53
2023-03-12T12:16:23.533Z,100554.27
2023-03-12T12:19:10.012Z,100558.01
2023-03-12T12:21:37.309Z,100552.65
2023-03-12T12:24:26.089Z,100541.61
2023-03-12T12:27:28.552Z,100543.41
2023-03-12T12:30:32.631Z,100545.05
2023-03-12T12:33:05.420Z,100552.21
2023-03-12T12:35:40.710Z,100546.80
2023-03-12T12:38:21.308Z,100534.90
2023-03-12T12:40:52.876Z,100530.96
2023-03-12T12:43:30.285Z,100535.10
2023-03-12T12:46:02.444Z,100531.02
2023-03-12T12:48:40.742Z,100528.20
2023-03-12T12:51:09.106Z,100528.96
2023-03-12T12:53:57.866Z,100527.77
2023-03-12T12:56:51.174Z,100531.13
2023-03-12T12:59:27.201Z,100534.66
2023-03-12T13:01:56.318Z,100529.14
2023-03-12T13:04:32.244Z,100522.98
2023-03-12T13:07:14.301Z,100518.02
2023-03-12T13:09:45.238Z,100519.66
2023-03-12T13:12:29.656Z,100528.05
2023-03-12T13:14:58.462Z,100524.39
2023-03-12T13:17:34.912Z,100526.60
2023-03-12T13:20:13.487Z,100522.09
2023-03-12T13:23:09.412Z,100519.73
2023-03-12T13:25:44.836Z,100520.35
2023-03-12T13:28:35.336Z,100529.09
2023-03-12T13:31:29.478Z,100533.06
2023-03-12T13:34:09.125Z,100537.67
2023-03-12T13:36:38.980Z,100536.90
2023-03-12T13:39:08.429Z,100536.59
2023-03-12T13:41:40.770Z,100535.92
2023-03-12T13:44:27.478Z,100541.55
2023-03-12T13:47:28.870Z,100548.80
2023-03-12T13:50:04.523Z,100546.50
2023-03-12T13:52:37.289Z,100555.74
2023-03-12T13:55:41.989Z,100560.60
2023-03-12T13:58:23.448Z,100558.19
2023-03-12T14:01:08.064Z,100553.96
2023-03-12T14:03:42.841Z,100554.14
2023-03-12T14:06:13.630Z,100550.77
2023-03-12T14:08:58.930Z,100552.05
2023-03-12T14:11:49.964Z,100546.48
2023-03-12T14:14:24.291Z,100545.29
2023-03-12T14:16:54.945Z,100553.30
2023-03-12T14:19:27.975Z,100557.64
2023-03-12T14:21:57.718Z,100554.63
2023-03-12T14:24:30.008Z,100550.17
2023-03-12T14:26:58.250Z,100549.84
2023-03-12T14:29:46.763Z,100550.75
2023-03-12T14:32:20.989Z,100547.63
2023-03-12T14:34:54.670Z,100542.58
2023-03-12T14:37:28.887Z,100540.45
2023-03-12T14:40:00.582Z,100545.84
2023-03-12T14:42:33.091Z,100542.73
2023-03-12T14:45:03.863Z,100545.90
2023-03-12T14:47:30.592Z,100545.09
2023-03-12T14:49:59.181Z,100547.23
2023-03-12T14:52:30.727Z,100547.72
2023-03-12T14:55:04.755Z,100550.89
2023-03-12T14:57:31.434Z,100552.08
2023-03-12T15:00:01.164Z,100556.09
2023-03-12T15:02:31.416Z,100561.78
2023-03-12T15:05:01.643Z,100563.95
2023-03-12T15:07:33.883Z,100561.87
2023-03-12T15:10:02.074Z,100559.55
2023-03-12T15:12:38.181Z,100555.06
2023-03-12T15:15:11.312Z,100552.83
2023-03-12T15:17:38.180Z,100551.23
2023-03-12T15:20:09.440Z,100549.63
2023-03-12T15:22:37.757Z,100551.57
2023-03-12T15:25:35.045Z,100554.87
2023-03-12T15:28:05.783Z,100550.77
2023-03-12T15:30:32.980Z,100545.77
2023-03-12T15:33:06.539Z,100554.30
2023-03-12T15:35:33.669Z,100558.13
2023-03-12T15:38:01.898Z,100562.72
2023-03-12T15:40:31.203Z,100563.91
2023-03-12T15:43:03.353Z,100564.90
2023-03-12T15:45:38.650Z,100570.48
2023-03-12T15:48:33.401Z,100567.48
2023-03-12T15:51:00.362Z,100567.65
2023-03-12T15:53:29.170Z,100558.28
2023-03-12T15:56:26.617Z,100558.17
2023-03-12T15:59:05.853Z,100566.11
2023-03-12T16:01:45.212Z,100569.19
2023-03-12T16:04:11.978Z,100573.19
2023-03-12T16:06:38.732Z,100577.61
2023-03-12T16:09:06.233Z,100573.78
2023-03-12T16:11:37.147Z,100571.41
2023-03-12T16:14:22.212Z,100575.59
2023-03-12T16:16:49.100Z,100579.77
2023-03-12T16:19:18.466Z,100583.25
2023-03-12T16:21:45.759Z,100581.05
2023-03-12T16:24:13.210Z,100589.08
2023-03-12T16:26:58.150Z,100595.56
2023-03-12T16:29:32.812Z,100599.59
2023-03-12T16:31:59.742Z,100600.46
2023-03-12T16:34:27.784Z,100605.24
2023-03-12T16:36:54.458Z,100610.77
2023-03-12T16:39:21.568Z,100611.95
2023-03-12T16:41:48.338Z,100618.19
2023-03-12T16:44:19.762Z,100620.05
2023-03-12T16:46:46.706Z,100625.75
2023-03-12T16:49:16.300Z,100628.90
2023-03-12T16:51:43.308Z,100630.06
2023-03-12T16:54:12.000Z,100635.50
2023-03-12T16:56:44.306Z,100642.34
2023-03-12T16:59:23.331Z,100642.39
2023-03-12T17:01:50.175Z,100635.05
2023-03-12T17:04:16.992Z,100638.27
2023-03-12T17:06:43.711Z,100642.70
2023-03-12T17:09:10.350Z,100645.98
2023-03-12T17:11:38.025Z,100649.06
2023-03-12T17:14:15.156Z,100656.23
2023-03-12T17:16:41.784Z,100656.52
2023-03-12T17:19:08.414Z,100663.31
2023-03-12T17:21:35.029Z,100669.95
2023-03-12T17:24:01.631Z,100667.42
2023-03-12T17:26:28.233Z,100667.34
2023-03-12T17:28:54.890Z,100668.23
2023-03-12T17:31:21.607Z,100679.89
2023-03-12T17:33:48.244Z,100682.15
2023-03-12T17:36:14.900Z,100685.55
2023-03-12T17:38:41.517Z,100692.55
2023-03-12T17:41:23.381Z,100702.04
2023-03-12T17:43:52.630Z,100716.30
2023-03-12T17:46:19.363Z,100728.80
2023-03-12T17:48:46.069Z,100741.49
2023-03-12T17:51:12.699Z,100753.58
2023-03-12T17:53:39.760Z,100762.75
2023-03-12T17:56:07.152Z,100767.80
2023-03-12T17:58:33.770Z,100770.28
2023-03-12T18:01:00.437Z,100773.96
2023-03-12T18:03:27.155Z,100776.70
2023-03-12T18:05:53.918Z,100785.11
2023-03-12T18:08:20.691Z,100787.06
2023-03-12T18:10:48.793Z,100786.02
2023-03-12T18:13:15.738Z,100786.21
2023-03-12T18:15:42.499Z,100788.70
2023-03-12T18:18:09.234Z,100787.17
2023-03-12T18:20:39.553Z,100785.04
2023-03-12T18:23:06.916Z,100783.90
2023-03-12T18:25:33.630Z,100785.17
2023-03-12T18:28:00.454Z,100793.15
2023-03-12T18:30:28.259Z,100798.23
2023-03-12T18:32:55.216Z,100798.35
2023-03-12T18:35:22.880Z,100803.75
2023-03-12T18:37:52.018Z,100795.73
2023-03-12T18:40:18.708Z,100799.78
2023-03-12T18:42:45.328Z,100801.11
2023-03-12T18:45:12.557Z,100802.38
2023-03-12T18:47:39.682Z,100811.82
2023-03-12T18:50:07.555Z,100818.86
2023-03-12T18:52:34.330Z,100818.50
2023-03-12T18:55:01.207Z,100822.09
2023-03-12T18:57:27.888Z,100820.45
2023-03-12T18:59:54.564Z,100821.69
2023-03-12T19:02:21.199Z,100831.13
2023-03-12T19:04:47.991Z,100831.34
2023-03-12T19:07:14.660Z,100829.86
2023-03-12T19:09:41.336Z,100830.35
2023-03-12T19:12:07.997Z,100833.52
2023-03-12T19:14:34.566Z,100835.45
2023-03-12T19:17:01.230Z,100832.39
2023-03-12T19:19:27.926Z,100839.17
2023-03-12T19:21:57.265Z,100841.60
2023-03-12T19:24:24.172Z,100844.69
2023-03-12T19:26:50.746Z,100847.61
2023-03-12T19:29:17.366Z,100849.75
2023-03-12T19:31:44.072Z,100851.70
2023-03-12T19:34:10.707Z,100853.73
2023-03-12T19:36:37.406Z,100853.11
2023-03-12T19:39:06.765Z,100855.49
2023-03-12T19:41:40.827Z,100858.89
2023-03-12T19:44:07.598Z,100863.20
2023-03-12T19:46:34.264Z,100869.23
2023-03-12T19:49:00.939Z,100881.14
2023-03-12T19:51:27.979Z,100891.17
2023-03-12T19:53:54.602Z,100903.54
2023-03-12T19:56:21.757Z,100915.55
2023-03-12T19:58:48.524Z,100919.88
2023-03-12T20:01:15.176Z,100924.23
2023-03-12T20:03:43.899Z,100925.23
2023-03-12T20:06:12.277Z,100925.90
2023-03-12T20:08:39.219Z,100936.11
2023-03-12T20:11:08.205Z,100937.72
2023-03-12T20:13:35.508Z,100943.95
2023-03-12T20:16:02.618Z,100950.58
2023-03-12T20:18:29.624Z,100948.80
2023-03-12T20:20:57.678Z,100945.92
2023-03-12T20:23:25.642Z,100940.34
2023-03-12T20:25:53.548Z,100937.45
2023-03-12T20:28:21.684Z,100930.52
2023-03-12T20:30:49.669Z,100927.86
2023-03-12T20:33:16.762Z,100926.86
2023-03-12T20:35:43.530Z,100927.47
2023-03-12T20:38:10.258Z,100925.98
2023-03-12T20:40:37.483Z,100928.54
2023-03-12T20:43:05.220Z,100927.27
2023-03-12T20:45:34.086Z,100929.88
2023-03-12T20:48:01.127Z,100925.48
2023-03-12T20:50:28.800Z,100925.41
2023-03-12T20:52:55.524Z,100928.65
2023-03-12T20:55:22.121Z,100924.98
2023-03-12T20:57:49.801Z,100917.66
2023-03-12T21:00:17.975Z,100924.30
2023-03-12T21:02:45.775Z,100923.95
2023-03-12T21:05:14.398Z,100925.90
2023-03-12T21:07:41.362Z,100924.29
2023-03-12T21:10:08.596Z,100928.13
2023-03-12T21:12:35.711Z,100930.80
2023-03-12T21:15:06.547Z,100935.35
2023-03-12T21:17:34.546Z,100945.51
2023-03-12T21:20:02.037Z,100949.04
2023-03-12T21:22:32.189Z,100961.52
2023-03-12T21:24:58.881Z,100963.38
2023-03-12T21:27:25.992Z,100970.54
2023-03-12T21:29:54.003Z,100969.09
2023-03-12T21:32:21.696Z,100964.77
2023-03-12T21:34:48.940Z,100963.29
2023-03-12T21:37:16.361Z,100959.95
2023-03-12T21:39:43.275Z,100956.79
2023-03-12T21:42:09.897Z,100962.72
2023-03-12T21:44:37.744Z,100968.30
2023-03-12T21:47:05.649Z,100970.06
2023-03-12T21:49:34.870Z,100975.17
2023-03-12T21:52:03.066Z,100979.94
2023-03-12T21:54:33.924Z,100977.70
2023-03-12T21:57:03.045Z,100979.77
2023-03-12T21:59:31.001Z,100974.81
2023-03-12T22:01:58.553Z,100975.40
2023-03-12T22:04:25.814Z,100970.36
2023-03-12T22:06:52.528Z,100968.33
2023-03-12T22:09:19.302Z,100968.98
2023-03-12T22:11:45.915Z,100967.90
2023-03-12T22:14:12.577Z,100967.70
2023-03-12T22:16:39.154Z,100965.48
2023-03-12T22:19:07.612Z,100959.85
2023-03-12T22:21:34.180Z,100962.58
2023-03-12T22:24:01.772Z,100966.84
2023-03-12T22:26:28.451Z,100970.77
2023-03-12T22:28:57.770Z,100970.67
2023-03-12T22:31:26.470Z,100971.59
2023-03-12T22:33:53.239Z,100979.14
2023-03-12T22:36:21.122Z,100975.55
2023-03-12T22:38:48.050Z,100976.15
2023-03-12T22:41:23.638Z,100973.27
2023-03-12T22:43:52.698Z,100967.50
2023-03-12T22:46:21.773Z,100965.90
2023-03-12T22:48:53.179Z,100964.73
2023-03-12T22:51:20.021Z,100966.91
2023-03-12T22:53:46.688Z,100971.80
2023-03-12T22:56:14.829Z,100977.53
2023-03-12T22:58:41.602Z,100983.59
2023-03-12T23:01:14.385Z,100984.96
2023-03-12T23:03:43.074Z,100980.89
2023-03-12T23:06:12.032Z,100980.59
2023-03-12T23:08:38.750Z,100978.93
2023-03-12T23:11:06.736Z,100980.69
2023-03-12T23:13:35.449Z,100980.37
2023-03-12T23:16:04.619Z,100983.08
2023-03-12T23:18:31.600Z,100977.92
2023-03-12T23:21:00.206Z,100977.77
2023-03-12T23:23:27.719Z,100978.48
2023-03-12T23:25:55.968Z,100974.74
2023-03-12T23:28:23.528Z,100974.25
2023-03-12T23:31:01.305Z,100974.91
2023-03-12T23:33:29.348Z,100976.73
2023-03-12T23:36:05.576Z,100977.26
2023-03-12T23:38:34.672Z,100978.48
2023-03-12T23:41:05.314Z,100976.74
2023-03-12T23:43:32.409Z,100981.41
2023-03-12T23:46:01.347Z,100980.01
2023-03-12T23:48:29.983Z,100978.17
2023-03-12T23:51:08.826Z,100973.21
2023-03-12T23:53:36.311Z,100968.32
2023-03-12T23:56:04.787Z,100967.52
2023-03-12T23:58:31.879Z,100971.63
